sensor_id;sensor_type;location;lat;lon;timestamp;P1;durP1;ratioP1;P2;durP2;ratioP2
8415;SDS011;4245;42.120;24.732;2023-02-21T00:01:25;3.17;;;1.90;;
8415;SDS011;4245;42.120;24.732;2023-02-21T00:04:09;3.87;;;1.83;;
8415;SDS011;4245;42.120;24.732;2023-02-21T00:06:54;2.10;;;1.60;;
8415;SDS011;4245;42.120;24.732;2023-02-21T00:09:39;1.87;;;1.70;;
8415;SDS011;4245;42.120;24.732;2023-02-21T00:12:23;4.23;;;1.70;;
8415;SDS011;4245;42.120;24.732;2023-02-21T00:15:08;2.80;;;1.50;;
8415;SDS011;4245;42.120;24.732;2023-02-21T00:17:53;2.00;;;1.70;;
8415;SDS011;4245;42.120;24.732;2023-02-21T00:20:37;3.10;;;1.77;;
8415;SDS011;4245;42.120;24.732;2023-02-21T00:23:21;3.90;;;1.50;;
8415;SDS011;4245;42.120;24.732;2023-02-21T00:26:07;3.23;;;1.80;;
8415;SDS011;4245;42.120;24.732;2023-02-21T00:28:51;2.20;;;1.87;;
8415;SDS011;4245;42.120;24.732;2023-02-21T00:31:35;3.37;;;1.90;;
8415;SDS011;4245;42.120;24.732;2023-02-21T00:34:19;2.63;;;1.80;;
8415;SDS011;4245;42.120;24.732;2023-02-21T00:37:03;2.93;;;1.60;;
8415;SDS011;4245;42.120;24.732;2023-02-21T00:39:47;4.73;;;1.93;;
8415;SDS011;4245;42.120;24.732;2023-02-21T00:42:32;2.60;;;1.57;;
8415;SDS011;4245;42.120;24.732;2023-02-21T00:45:16;2.13;;;1.80;;
8415;SDS011;4245;42.120;24.732;2023-02-21T00:48:00;2.13;;;1.60;;
8415;SDS011;4245;42.120;24.732;2023-02-21T00:50:44;2.07;;;1.70;;
8415;SDS011;4245;42.120;24.732;2023-02-21T00:53:29;3.40;;;2.03;;
8415;SDS011;4245;42.120;24.732;2023-02-21T00:56:13;3.77;;;1.67;;
8415;SDS011;4245;42.120;24.732;2023-02-21T00:58:58;7.50;;;1.83;;
8415;SDS011;4245;42.120;24.732;2023-02-21T01:01:43;4.37;;;1.83;;
8415;SDS011;4245;42.120;24.732;2023-02-21T01:04:27;4.53;;;1.70;;
8415;SDS011;4245;42.120;24.732;2023-02-21T01:07:11;2.50;;;1.50;;
8415;SDS011;4245;42.120;24.732;2023-02-21T01:09:55;2.63;;;1.63;;
8415;SDS011;4245;42.120;24.732;2023-02-21T01:12:39;2.60;;;1.47;;
8415;SDS011;4245;42.120;24.732;2023-02-21T01:15:25;3.07;;;1.67;;
8415;SDS011;4245;42.120;24.732;2023-02-21T01:18:09;2.57;;;1.37;;
8415;SDS011;4245;42.120;24.732;2023-02-21T01:20:53;1.53;;;1.30;;
8415;SDS011;4245;42.120;24.732;2023-02-21T01:23:37;1.80;;;1.27;;
8415;SDS011;4245;42.120;24.732;2023-02-21T01:26:21;2.23;;;1.40;;
8415;SDS011;4245;42.120;24.732;2023-02-21T01:29:05;2.00;;;1.50;;
8415;SDS011;4245;42.120;24.732;2023-02-21T01:31:50;2.43;;;1.53;;
8415;SDS011;4245;42.120;24.732;2023-02-21T01:34:34;2.07;;;1.20;;
8415;SDS011;4245;42.120;24.732;2023-02-21T01:37:18;3.87;;;1.50;;
8415;SDS011;4245;42.120;24.732;2023-02-21T01:40:03;2.43;;;1.50;;
8415;SDS011;4245;42.120;24.732;2023-02-21T01:42:47;1.70;;;1.40;;
8415;SDS011;4245;42.120;24.732;2023-02-21T01:48:39;1.50;;;1.30;;
8415;SDS011;4245;42.120;24.732;2023-02-21T01:51:24;2.90;;;1.83;;
8415;SDS011;4245;42.120;24.732;2023-02-21T01:54:14;3.17;;;1.80;;
8415;SDS011;4245;42.120;24.732;2023-02-21T01:57:00;1.73;;;1.53;;
8415;SDS011;4245;42.120;24.732;2023-02-21T01:59:46;2.73;;;1.60;;
8415;SDS011;4245;42.120;24.732;2023-02-21T02:02:32;2.07;;;1.40;;
8415;SDS011;4245;42.120;24.732;2023-02-21T02:05:22;1.60;;;1.50;;
8415;SDS011;4245;42.120;24.732;2023-02-21T02:08:07;2.27;;;1.40;;
8415;SDS011;4245;42.120;24.732;2023-02-21T02:10:54;2.00;;;1.57;;
8415;SDS011;4245;42.120;24.732;2023-02-21T02:14:01;4.50;;;1.50;;
8415;SDS011;4245;42.120;24.732;2023-02-21T02:16:40;1.50;;;1.30;;
8415;SDS011;4245;42.120;24.732;2023-02-21T02:19:22;1.93;;;1.40;;
8415;SDS011;4245;42.120;24.732;2023-02-21T02:25:19;1.70;;;1.23;;
8415;SDS011;4245;42.120;24.732;2023-02-21T02:27:55;3.00;;;1.20;;
8415;SDS011;4245;42.120;24.732;2023-02-21T02:30:44;1.87;;;1.40;;
8415;SDS011;4245;42.120;24.732;2023-02-21T02:36:35;1.67;;;1.40;;
8415;SDS011;4245;42.120;24.732;2023-02-21T02:39:10;1.37;;;1.20;;
8415;SDS011;4245;42.120;24.732;2023-02-21T02:41:45;2.17;;;1.47;;
8415;SDS011;4245;42.120;24.732;2023-02-21T02:44:18;2.67;;;1.63;;
8415;SDS011;4245;42.120;24.732;2023-02-21T02:46:50;1.83;;;1.57;;
8415;SDS011;4245;42.120;24.732;2023-02-21T02:49:22;2.63;;;1.40;;
8415;SDS011;4245;42.120;24.732;2023-02-21T02:51:52;4.80;;;1.77;;
8415;SDS011;4245;42.120;24.732;2023-02-21T02:54:19;2.13;;;1.53;;
8415;SDS011;4245;42.120;24.732;2023-02-21T02:56:46;3.80;;;1.77;;
8415;SDS011;4245;42.120;24.732;2023-02-21T02:59:15;3.87;;;1.50;;
8415;SDS011;4245;42.120;24.732;2023-02-21T03:01:48;2.57;;;1.83;;
8415;SDS011;4245;42.120;24.732;2023-02-21T03:04:40;2.30;;;1.70;;
8415;SDS011;4245;42.120;24.732;2023-02-21T03:07:19;4.47;;;1.87;;
8415;SDS011;4245;42.120;24.732;2023-02-21T03:09:52;3.60;;;2.00;;
8415;SDS011;4245;42.120;24.732;2023-02-21T03:12:32;2.53;;;1.60;;
8415;SDS011;4245;42.120;24.732;2023-02-21T03:15:06;3.17;;;1.87;;
8415;SDS011;4245;42.120;24.732;2023-02-21T03:17:38;3.13;;;1.90;;
8415;SDS011;4245;42.120;24.732;2023-02-21T03:20:09;2.20;;;1.53;;
8415;SDS011;4245;42.120;24.732;2023-02-21T03:22:40;2.23;;;1.87;;
8415;SDS011;4245;42.120;24.732;2023-02-21T03:25:10;2.57;;;1.90;;
8415;SDS011;4245;42.120;24.732;2023-02-21T03:27:39;1.70;;;1.40;;
8415;SDS011;4245;42.120;24.732;2023-02-21T03:30:09;2.60;;;1.50;;
8415;SDS011;4245;42.120;24.732;2023-02-21T03:32:37;2.20;;;1.77;;
8415;SDS011;4245;42.120;24.732;2023-02-21T03:35:06;2.50;;;1.53;;
8415;SDS011;4245;42.120;24.732;2023-02-21T03:37:34;2.60;;;1.70;;
8415;SDS011;4245;42.120;24.732;2023-02-21T03:40:07;3.40;;;1.90;;
8415;SDS011;4245;42.120;24.732;2023-02-21T03:42:36;3.00;;;1.77;;
8415;SDS011;4245;42.120;24.732;2023-02-21T03:45:03;2.77;;;1.77;;
8415;SDS011;4245;42.120;24.732;2023-02-21T03:47:31;1.73;;;1.60;;
8415;SDS011;4245;42.120;24.732;2023-02-21T03:49:58;2.37;;;1.40;;
8415;SDS011;4245;42.120;24.732;2023-02-21T03:52:24;3.00;;;1.73;;
8415;SDS011;4245;42.120;24.732;2023-02-21T03:54:51;2.17;;;1.43;;
8415;SDS011;4245;42.120;24.732;2023-02-21T03:57:19;2.00;;;1.40;;
8415;SDS011;4245;42.120;24.732;2023-02-21T03:59:46;3.03;;;1.60;;
8415;SDS011;4245;42.120;24.732;2023-02-21T04:02:13;6.13;;;1.53;;
8415;SDS011;4245;42.120;24.732;2023-02-21T04:04:40;3.60;;;1.50;;
8415;SDS011;4245;42.120;24.732;2023-02-21T04:07:07;2.67;;;1.90;;
8415;SDS011;4245;42.120;24.732;2023-02-21T04:09:35;3.60;;;1.40;;
8415;SDS011;4245;42.120;24.732;2023-02-21T04:12:03;2.70;;;1.40;;
8415;SDS011;4245;42.120;24.732;2023-02-21T04:14:31;1.93;;;1.30;;
8415;SDS011;4245;42.120;24.732;2023-02-21T04:16:58;1.93;;;1.43;;
8415;SDS011;4245;42.120;24.732;2023-02-21T04:19:25;2.43;;;1.60;;
8415;SDS011;4245;42.120;24.732;2023-02-21T04:21:52;2.77;;;1.30;;
8415;SDS011;4245;42.120;24.732;2023-02-21T04:24:18;2.90;;;1.50;;
8415;SDS011;4245;42.120;24.732;2023-02-21T04:26:45;2.07;;;1.57;;
8415;SDS011;4245;42.120;24.732;2023-02-21T04:29:12;2.30;;;1.57;;
8415;SDS011;4245;42.120;24.732;2023-02-21T04:31:40;2.97;;;1.40;;
8415;SDS011;4245;42.120;24.732;2023-02-21T04:34:07;1.67;;;1.43;;
8415;SDS011;4245;42.120;24.732;2023-02-21T04:36:34;2.57;;;1.80;;
8415;SDS011;4245;42.120;24.732;2023-02-21T04:39:02;2.43;;;1.70;;
8415;SDS011;4245;42.120;24.732;2023-02-21T04:41:29;4.13;;;1.63;;
8415;SDS011;4245;42.120;24.732;2023-02-21T04:43:56;3.70;;;1.97;;
8415;SDS011;4245;42.120;24.732;2023-02-21T04:46:23;4.07;;;2.20;;
8415;SDS011;4245;42.120;24.732;2023-02-21T04:48:51;5.03;;;2.30;;
8415;SDS011;4245;42.120;24.732;2023-02-21T04:51:19;4.77;;;2.13;;
8415;SDS011;4245;42.120;24.732;2023-02-21T04:53:48;4.50;;;1.73;;
8415;SDS011;4245;42.120;24.732;2023-02-21T04:56:17;4.73;;;1.90;;
8415;SDS011;4245;42.120;24.732;2023-02-21T04:58:45;5.97;;;2.60;;
8415;SDS011;4245;42.120;24.732;2023-02-21T05:01:12;3.03;;;2.03;;
8415;SDS011;4245;42.120;24.732;2023-02-21T05:03:40;3.13;;;2.00;;
8415;SDS011;4245;42.120;24.732;2023-02-21T05:06:08;3.30;;;2.13;;
8415;SDS011;4245;42.120;24.732;2023-02-21T05:08:35;4.07;;;2.00;;
8415;SDS011;4245;42.120;24.732;2023-02-21T05:11:02;5.83;;;2.20;;
8415;SDS011;4245;42.120;24.732;2023-02-21T05:13:29;10.43;;;3.30;;
8415;SDS011;4245;42.120;24.732;2023-02-21T05:15:56;5.30;;;2.57;;
8415;SDS011;4245;42.120;24.732;2023-02-21T05:18:23;5.80;;;2.80;;
8415;SDS011;4245;42.120;24.732;2023-02-21T05:20:52;5.53;;;2.30;;
8415;SDS011;4245;42.120;24.732;2023-02-21T05:23:21;4.60;;;2.03;;
8415;SDS011;4245;42.120;24.732;2023-02-21T05:25:59;3.87;;;1.80;;
8415;SDS011;4245;42.120;24.732;2023-02-21T05:28:27;2.73;;;1.90;;
8415;SDS011;4245;42.120;24.732;2023-02-21T05:30:55;4.80;;;2.37;;
8415;SDS011;4245;42.120;24.732;2023-02-21T05:33:22;6.67;;;2.13;;
8415;SDS011;4245;42.120;24.732;2023-02-21T05:35:49;8.87;;;2.00;;
8415;SDS011;4245;42.120;24.732;2023-02-21T05:38:17;3.27;;;2.10;;
8415;SDS011;4245;42.120;24.732;2023-02-21T05:40:47;3.10;;;2.00;;
8415;SDS011;4245;42.120;24.732;2023-02-21T05:43:14;6.77;;;2.93;;
8415;SDS011;4245;42.120;24.732;2023-02-21T05:45:41;4.63;;;2.10;;
8415;SDS011;4245;42.120;24.732;2023-02-21T05:48:07;3.17;;;2.13;;
8415;SDS011;4245;42.120;24.732;2023-02-21T05:50:34;3.03;;;1.83;;
8415;SDS011;4245;42.120;24.732;2023-02-21T05:53:03;6.33;;;1.80;;
8415;SDS011;4245;42.120;24.732;2023-02-21T05:55:31;5.13;;;2.40;;
8415;SDS011;4245;42.120;24.732;2023-02-21T05:57:59;2.57;;;1.70;;
8415;SDS011;4245;42.120;24.732;2023-02-21T06:00:27;3.13;;;2.10;;
8415;SDS011;4245;42.120;24.732;2023-02-21T06:02:55;2.80;;;1.97;;
8415;SDS011;4245;42.120;24.732;2023-02-21T06:05:22;5.37;;;2.93;;
8415;SDS011;4245;42.120;24.732;2023-02-21T06:07:50;7.10;;;2.70;;
8415;SDS011;4245;42.120;24.732;2023-02-21T06:10:17;6.17;;;2.40;;
8415;SDS011;4245;42.120;24.732;2023-02-21T06:12:44;2.77;;;2.10;;
8415;SDS011;4245;42.120;24.732;2023-02-21T06:15:13;3.63;;;1.83;;
8415;SDS011;4245;42.120;24.732;2023-02-21T06:17:40;3.43;;;1.97;;
8415;SDS011;4245;42.120;24.732;2023-02-21T06:20:09;9.47;;;2.50;;
8415;SDS011;4245;42.120;24.732;2023-02-21T06:22:38;6.40;;;2.50;;
8415;SDS011;4245;42.120;24.732;2023-02-21T06:25:05;5.23;;;2.40;;
8415;SDS011;4245;42.120;24.732;2023-02-21T06:27:32;5.13;;;2.77;;
8415;SDS011;4245;42.120;24.732;2023-02-21T06:30:00;6.50;;;2.37;;
8415;SDS011;4245;42.120;24.732;2023-02-21T06:32:28;2.87;;;2.10;;
8415;SDS011;4245;42.120;24.732;2023-02-21T06:34:55;9.33;;;2.40;;
8415;SDS011;4245;42.120;24.732;2023-02-21T06:37:22;6.10;;;2.60;;
8415;SDS011;4245;42.120;24.732;2023-02-21T06:39:48;5.23;;;2.50;;
8415;SDS011;4245;42.120;24.732;2023-02-21T06:42:16;5.17;;;2.40;;
8415;SDS011;4245;42.120;24.732;2023-02-21T06:44:43;3.67;;;2.50;;
8415;SDS011;4245;42.120;24.732;2023-02-21T06:47:10;3.80;;;1.93;;
8415;SDS011;4245;42.120;24.732;2023-02-21T06:49:39;3.10;;;2.10;;
8415;SDS011;4245;42.120;24.732;2023-02-21T06:52:06;5.77;;;2.00;;
8415;SDS011;4245;42.120;24.732;2023-02-21T06:54:33;7.97;;;3.10;;
8415;SDS011;4245;42.120;24.732;2023-02-21T06:57:00;5.67;;;2.70;;
8415;SDS011;4245;42.120;24.732;2023-02-21T06:59:27;5.50;;;2.90;;
8415;SDS011;4245;42.120;24.732;2023-02-21T07:01:54;7.13;;;2.47;;
8415;SDS011;4245;42.120;24.732;2023-02-21T07:04:20;4.00;;;2.40;;
8415;SDS011;4245;42.120;24.732;2023-02-21T07:06:49;6.77;;;2.40;;
8415;SDS011;4245;42.120;24.732;2023-02-21T07:09:16;5.63;;;2.20;;
8415;SDS011;4245;42.120;24.732;2023-02-21T07:11:43;3.47;;;2.20;;
8415;SDS011;4245;42.120;24.732;2023-02-21T07:14:11;3.73;;;2.17;;
8415;SDS011;4245;42.120;24.732;2023-02-21T07:16:38;8.90;;;2.40;;
8415;SDS011;4245;42.120;24.732;2023-02-21T07:19:05;5.73;;;2.27;;
8415;SDS011;4245;42.120;24.732;2023-02-21T07:21:31;5.30;;;2.10;;
8415;SDS011;4245;42.120;24.732;2023-02-21T07:24:00;6.53;;;2.60;;
8415;SDS011;4245;42.120;24.732;2023-02-21T07:26:26;4.30;;;2.20;;
8415;SDS011;4245;42.120;24.732;2023-02-21T07:28:53;6.70;;;2.33;;
8415;SDS011;4245;42.120;24.732;2023-02-21T07:31:20;4.63;;;2.43;;
8415;SDS011;4245;42.120;24.732;2023-02-21T07:33:47;4.23;;;2.20;;
8415;SDS011;4245;42.120;24.732;2023-02-21T07:36:14;5.70;;;2.50;;
8415;SDS011;4245;42.120;24.732;2023-02-21T07:38:40;4.87;;;2.70;;
8415;SDS011;4245;42.120;24.732;2023-02-21T07:41:09;2.87;;;2.10;;
8415;SDS011;4245;42.120;24.732;2023-02-21T07:43:35;11.53;;;2.40;;
8415;SDS011;4245;42.120;24.732;2023-02-21T07:46:03;4.03;;;2.00;;
8415;SDS011;4245;42.120;24.732;2023-02-21T07:48:30;5.50;;;2.20;;
8415;SDS011;4245;42.120;24.732;2023-02-21T07:50:57;4.40;;;2.10;;
8415;SDS011;4245;42.120;24.732;2023-02-21T07:53:23;4.40;;;1.93;;
8415;SDS011;4245;42.120;24.732;2023-02-21T07:55:50;12.83;;;3.40;;
8415;SDS011;4245;42.120;24.732;2023-02-21T07:58:18;7.37;;;3.80;;
8415;SDS011;4245;42.120;24.732;2023-02-21T08:00:45;3.53;;;2.80;;
8415;SDS011;4245;42.120;24.732;2023-02-21T08:03:12;3.93;;;2.23;;
8415;SDS011;4245;42.120;24.732;2023-02-21T08:05:39;4.83;;;2.40;;
8415;SDS011;4245;42.120;24.732;2023-02-21T08:08:06;3.70;;;2.20;;
8415;SDS011;4245;42.120;24.732;2023-02-21T08:10:34;12.47;;;3.20;;
8415;SDS011;4245;42.120;24.732;2023-02-21T08:13:01;7.93;;;2.60;;
8415;SDS011;4245;42.120;24.732;2023-02-21T08:15:29;4.07;;;2.50;;
8415;SDS011;4245;42.120;24.732;2023-02-21T08:17:56;2.87;;;2.20;;
8415;SDS011;4245;42.120;24.732;2023-02-21T08:20:23;8.03;;;2.33;;
8415;SDS011;4245;42.120;24.732;2023-02-21T08:22:50;6.33;;;2.37;;
8415;SDS011;4245;42.120;24.732;2023-02-21T08:25:16;9.80;;;2.07;;
8415;SDS011;4245;42.120;24.732;2023-02-21T08:27:43;6.03;;;2.30;;
8415;SDS011;4245;42.120;24.732;2023-02-21T08:30:12;3.87;;;2.07;;
8415;SDS011;4245;42.120;24.732;2023-02-21T08:32:41;6.47;;;2.47;;
8415;SDS011;4245;42.120;24.732;2023-02-21T08:35:12;2.93;;;2.07;;
8415;SDS011;4245;42.120;24.732;2023-02-21T08:37:42;10.63;;;2.30;;
8415;SDS011;4245;42.120;24.732;2023-02-21T08:40:09;4.03;;;2.20;;
8415;SDS011;4245;42.120;24.732;2023-02-21T08:42:38;4.53;;;2.53;;
8415;SDS011;4245;42.120;24.732;2023-02-21T08:45:05;7.17;;;2.50;;
8415;SDS011;4245;42.120;24.732;2023-02-21T08:47:34;6.23;;;2.40;;
8415;SDS011;4245;42.120;24.732;2023-02-21T08:50:03;4.33;;;2.77;;
8415;SDS011;4245;42.120;24.732;2023-02-21T08:52:31;6.07;;;3.33;;
8415;SDS011;4245;42.120;24.732;2023-02-21T08:54:58;6.10;;;2.97;;
8415;SDS011;4245;42.120;24.732;2023-02-21T08:57:24;10.57;;;2.90;;
8415;SDS011;4245;42.120;24.732;2023-02-21T08:59:51;9.07;;;3.30;;
8415;SDS011;4245;42.120;24.732;2023-02-21T09:02:19;8.07;;;3.37;;
8415;SDS011;4245;42.120;24.732;2023-02-21T09:04:47;6.23;;;2.43;;
8415;SDS011;4245;42.120;24.732;2023-02-21T09:07:16;7.00;;;2.80;;
8415;SDS011;4245;42.120;24.732;2023-02-21T09:09:44;6.07;;;2.37;;
8415;SDS011;4245;42.120;24.732;2023-02-21T09:12:11;6.90;;;2.20;;
8415;SDS011;4245;42.120;24.732;2023-02-21T09:14:39;4.43;;;2.33;;
8415;SDS011;4245;42.120;24.732;2023-02-21T09:17:07;4.57;;;2.10;;
8415;SDS011;4245;42.120;24.732;2023-02-21T09:19:36;8.40;;;2.33;;
8415;SDS011;4245;42.120;24.732;2023-02-21T09:22:03;3.30;;;2.23;;
8415;SDS011;4245;42.120;24.732;2023-02-21T09:24:33;6.83;;;2.70;;
8415;SDS011;4245;42.120;24.732;2023-02-21T09:27:00;6.93;;;2.47;;
8415;SDS011;4245;42.120;24.732;2023-02-21T09:29:28;9.10;;;3.13;;
8415;SDS011;4245;42.120;24.732;2023-02-21T09:31:55;6.13;;;2.50;;
8415;SDS011;4245;42.120;24.732;2023-02-21T09:34:22;7.07;;;3.10;;
8415;SDS011;4245;42.120;24.732;2023-02-21T09:36:49;5.53;;;2.20;;
8415;SDS011;4245;42.120;24.732;2023-02-21T09:39:16;5.87;;;2.50;;
8415;SDS011;4245;42.120;24.732;2023-02-21T09:41:45;5.23;;;2.23;;
8415;SDS011;4245;42.120;24.732;2023-02-21T09:44:13;4.97;;;2.33;;
8415;SDS011;4245;42.120;24.732;2023-02-21T09:46:43;2.90;;;2.13;;
8415;SDS011;4245;42.120;24.732;2023-02-21T09:49:12;7.77;;;2.50;;
8415;SDS011;4245;42.120;24.732;2023-02-21T09:51:47;6.72;;;2.95;;
8415;SDS011;4245;42.120;24.732;2023-02-21T09:54:16;8.63;;;2.43;;
8415;SDS011;4245;42.120;24.732;2023-02-21T09:56:55;6.10;;;2.40;;
8415;SDS011;4245;42.120;24.732;2023-02-21T09:59:24;3.93;;;2.73;;
8415;SDS011;4245;42.120;24.732;2023-02-21T10:01:56;7.70;;;2.60;;
8415;SDS011;4245;42.120;24.732;2023-02-21T10:04:39;4.57;;;2.20;;
8415;SDS011;4245;42.120;24.732;2023-02-21T10:07:20;4.90;;;2.30;;
8415;SDS011;4245;42.120;24.732;2023-02-21T10:09:53;3.27;;;2.17;;
8415;SDS011;4245;42.120;24.732;2023-02-21T10:12:27;3.30;;;2.00;;
8415;SDS011;4245;42.120;24.732;2023-02-21T10:15:00;9.40;;;2.20;;
8415;SDS011;4245;42.120;24.732;2023-02-21T10:17:40;4.53;;;2.27;;
8415;SDS011;4245;42.120;24.732;2023-02-21T10:20:15;3.47;;;1.90;;
8415;SDS011;4245;42.120;24.732;2023-02-21T10:22:47;2.40;;;1.87;;
8415;SDS011;4245;42.120;24.732;2023-02-21T10:25:19;2.97;;;2.03;;
8415;SDS011;4245;42.120;24.732;2023-02-21T10:27:50;10.93;;;3.50;;
8415;SDS011;4245;42.120;24.732;2023-02-21T10:30:21;9.33;;;3.30;;
8415;SDS011;4245;42.120;24.732;2023-02-21T10:32:53;3.40;;;2.07;;
8415;SDS011;4245;42.120;24.732;2023-02-21T10:35:19;2.60;;;1.98;;
8415;SDS011;4245;42.120;24.732;2023-02-21T10:37:47;2.87;;;2.03;;
8415;SDS011;4245;42.120;24.732;2023-02-21T10:40:21;3.33;;;2.10;;
8415;SDS011;4245;42.120;24.732;2023-02-21T10:42:56;2.90;;;2.13;;
8415;SDS011;4245;42.120;24.732;2023-02-21T10:45:30;4.47;;;2.40;;
8415;SDS011;4245;42.120;24.732;2023-02-21T10:48:02;3.00;;;2.40;;
8415;SDS011;4245;42.120;24.732;2023-02-21T10:50:43;5.93;;;2.15;;
8415;SDS011;4245;42.120;24.732;2023-02-21T10:53:23;4.83;;;2.10;;
8415;SDS011;4245;42.120;24.732;2023-02-21T10:56:08;5.75;;;2.20;;
8415;SDS011;4245;42.120;24.732;2023-02-21T10:58:47;2.63;;;2.00;;
8415;SDS011;4245;42.120;24.732;2023-02-21T11:01:16;3.05;;;2.22;;
8415;SDS011;4245;42.120;24.732;2023-02-21T11:03:46;5.05;;;2.00;;
8415;SDS011;4245;42.120;24.732;2023-02-21T11:06:23;3.88;;;1.90;;
8415;SDS011;4245;42.120;24.732;2023-02-21T11:08:57;4.25;;;1.98;;
8415;SDS011;4245;42.120;24.732;2023-02-21T11:11:31;2.88;;;2.30;;
8415;SDS011;4245;42.120;24.732;2023-02-21T11:14:16;2.10;;;1.90;;
8415;SDS011;4245;42.120;24.732;2023-02-21T11:19:47;2.80;;;2.00;;
8415;SDS011;4245;42.120;24.732;2023-02-21T11:22:16;4.45;;;2.10;;
8415;SDS011;4245;42.120;24.732;2023-02-21T11:24:49;4.00;;;2.10;;
8415;SDS011;4245;42.120;24.732;2023-02-21T11:27:20;7.22;;;2.38;;
8415;SDS011;4245;42.120;24.732;2023-02-21T11:29:49;7.18;;;2.50;;
8415;SDS011;4245;42.120;24.732;2023-02-21T11:32:23;5.47;;;2.08;;
8415;SDS011;4245;42.120;24.732;2023-02-21T11:34:59;4.22;;;1.92;;
8415;SDS011;4245;42.120;24.732;2023-02-21T11:37:27;3.85;;;2.08;;
8415;SDS011;4245;42.120;24.732;2023-02-21T11:39:56;4.28;;;2.25;;
8415;SDS011;4245;42.120;24.732;2023-02-21T11:42:26;2.70;;;2.30;;
8415;SDS011;4245;42.120;24.732;2023-02-21T11:45:05;6.57;;;2.60;;
8415;SDS011;4245;42.120;24.732;2023-02-21T11:47:42;4.45;;;2.28;;
8415;SDS011;4245;42.120;24.732;2023-02-21T11:50:14;6.18;;;2.63;;
8415;SDS011;4245;42.120;24.732;2023-02-21T11:52:49;5.72;;;2.47;;
8415;SDS011;4245;42.120;24.732;2023-02-21T11:55:23;5.18;;;2.30;;
8415;SDS011;4245;42.120;24.732;2023-02-21T11:57:54;11.57;;;2.70;;
8415;SDS011;4245;42.120;24.732;2023-02-21T12:00:34;4.30;;;1.92;;
8415;SDS011;4245;42.120;24.732;2023-02-21T12:03:21;3.85;;;1.85;;
8415;SDS011;4245;42.120;24.732;2023-02-21T12:06:02;4.03;;;2.33;;
8415;SDS011;4245;42.120;24.732;2023-02-21T12:08:39;3.53;;;2.40;;
8415;SDS011;4245;42.120;24.732;2023-02-21T12:11:17;6.35;;;2.55;;
8415;SDS011;4245;42.120;24.732;2023-02-21T12:14:01;3.20;;;2.20;;
8415;SDS011;4245;42.120;24.732;2023-02-21T12:16:39;3.88;;;2.20;;
8415;SDS011;4245;42.120;24.732;2023-02-21T12:19:15;4.33;;;2.53;;
8415;SDS011;4245;42.120;24.732;2023-02-21T12:22:02;4.90;;;2.30;;
8415;SDS011;4245;42.120;24.732;2023-02-21T12:24:36;3.42;;;1.95;;
8415;SDS011;4245;42.120;24.732;2023-02-21T12:27:13;5.13;;;2.30;;
8415;SDS011;4245;42.120;24.732;2023-02-21T12:29:48;4.05;;;1.80;;
8415;SDS011;4245;42.120;24.732;2023-02-21T12:32:30;4.82;;;2.13;;
8415;SDS011;4245;42.120;24.732;2023-02-21T12:38:09;8.57;;;1.95;;
8415;SDS011;4245;42.120;24.732;2023-02-21T12:40:43;6.15;;;1.85;;
8415;SDS011;4245;42.120;24.732;2023-02-21T12:43:21;5.35;;;1.80;;
8415;SDS011;4245;42.120;24.732;2023-02-21T12:45:59;5.90;;;1.92;;
8415;SDS011;4245;42.120;24.732;2023-02-21T12:48:36;3.33;;;1.60;;
8415;SDS011;4245;42.120;24.732;2023-02-21T12:51:07;7.70;;;1.67;;
8415;SDS011;4245;42.120;24.732;2023-02-21T12:53:39;4.50;;;1.90;;
8415;SDS011;4245;42.120;24.732;2023-02-21T12:56:10;4.22;;;1.58;;
8415;SDS011;4245;42.120;24.732;2023-02-21T12:58:43;4.70;;;1.73;;
8415;SDS011;4245;42.120;24.732;2023-02-21T13:01:14;4.00;;;1.45;;
8415;SDS011;4245;42.120;24.732;2023-02-21T13:03:49;3.78;;;1.27;;
8415;SDS011;4245;42.120;24.732;2023-02-21T13:06:25;1.75;;;1.35;;
8415;SDS011;4245;42.120;24.732;2023-02-21T13:08:58;4.47;;;1.50;;
8415;SDS011;4245;42.120;24.732;2023-02-21T13:11:34;2.38;;;1.50;;
8415;SDS011;4245;42.120;24.732;2023-02-21T13:14:07;9.13;;;1.55;;
8415;SDS011;4245;42.120;24.732;2023-02-21T13:16:36;3.95;;;1.30;;
8415;SDS011;4245;42.120;24.732;2023-02-21T13:19:05;3.08;;;1.83;;
8415;SDS011;4245;42.120;24.732;2023-02-21T13:21:42;1.13;;;1.02;;
8415;SDS011;4245;42.120;24.732;2023-02-21T13:24:35;3.95;;;1.35;;
8415;SDS011;4245;42.120;24.732;2023-02-21T13:27:29;3.92;;;1.60;;
8415;SDS011;4245;42.120;24.732;2023-02-21T13:30:20;5.43;;;1.63;;
8415;SDS011;4245;42.120;24.732;2023-02-21T13:32:51;4.68;;;1.92;;
8415;SDS011;4245;42.120;24.732;2023-02-21T13:35:24;5.88;;;2.03;;
8415;SDS011;4245;42.120;24.732;2023-02-21T13:37:54;6.32;;;2.60;;
8415;SDS011;4245;42.120;24.732;2023-02-21T13:40:23;6.50;;;1.60;;
8415;SDS011;4245;42.120;24.732;2023-02-21T13:42:58;3.73;;;1.80;;
8415;SDS011;4245;42.120;24.732;2023-02-21T13:45:28;5.40;;;1.70;;
8415;SDS011;4245;42.120;24.732;2023-02-21T13:50:57;2.70;;;1.60;;
8415;SDS011;4245;42.120;24.732;2023-02-21T13:53:26;4.15;;;1.70;;
8415;SDS011;4245;42.120;24.732;2023-02-21T13:59:29;4.85;;;1.77;;
8415;SDS011;4245;42.120;24.732;2023-02-21T14:02:14;3.00;;;1.63;;
8415;SDS011;4245;42.120;24.732;2023-02-21T14:07:49;3.40;;;1.80;;
8415;SDS011;4245;42.120;24.732;2023-02-21T14:10:23;5.10;;;1.67;;
8415;SDS011;4245;42.120;24.732;2023-02-21T14:12:54;4.95;;;1.80;;
8415;SDS011;4245;42.120;24.732;2023-02-21T14:15:34;3.47;;;1.70;;
8415;SDS011;4245;42.120;24.732;2023-02-21T14:18:02;5.15;;;1.90;;
8415;SDS011;4245;42.120;24.732;2023-02-21T14:20:29;3.00;;;1.80;;
8415;SDS011;4245;42.120;24.732;2023-02-21T14:22:58;3.80;;;2.10;;
8415;SDS011;4245;42.120;24.732;2023-02-21T14:25:26;2.47;;;1.70;;
8415;SDS011;4245;42.120;24.732;2023-02-21T14:27:59;3.47;;;1.90;;
8415;SDS011;4245;42.120;24.732;2023-02-21T14:30:27;3.90;;;1.90;;
8415;SDS011;4245;42.120;24.732;2023-02-21T14:32:59;8.32;;;1.88;;
8415;SDS011;4245;42.120;24.732;2023-02-21T14:35:35;4.77;;;1.87;;
8415;SDS011;4245;42.120;24.732;2023-02-21T14:38:15;4.90;;;1.90;;
8415;SDS011;4245;42.120;24.732;2023-02-21T14:40:47;4.13;;;1.70;;
8415;SDS011;4245;42.120;24.732;2023-02-21T14:43:33;5.40;;;1.90;;
8415;SDS011;4245;42.120;24.732;2023-02-21T14:46:21;3.15;;;2.00;;
8415;SDS011;4245;42.120;24.732;2023-02-21T14:49:11;5.60;;;2.17;;
8415;SDS011;4245;42.120;24.732;2023-02-21T14:52:13;8.35;;;3.10;;
8415;SDS011;4245;42.120;24.732;2023-02-21T14:55:06;5.95;;;2.65;;
8415;SDS011;4245;42.120;24.732;2023-02-21T14:57:56;3.08;;;2.08;;
8415;SDS011;4245;42.120;24.732;2023-02-21T15:00:52;4.40;;;2.30;;
8415;SDS011;4245;42.120;24.732;2023-02-21T15:03:28;7.63;;;2.35;;
8415;SDS011;4245;42.120;24.732;2023-02-21T15:05:59;8.45;;;3.10;;
8415;SDS011;4245;42.120;24.732;2023-02-21T15:08:40;4.60;;;2.60;;
8415;SDS011;4245;42.120;24.732;2023-02-21T15:11:18;7.05;;;2.83;;
8415;SDS011;4245;42.120;24.732;2023-02-21T15:14:10;4.75;;;2.60;;
8415;SDS011;4245;42.120;24.732;2023-02-21T15:16:47;6.43;;;3.33;;
8415;SDS011;4245;42.120;24.732;2023-02-21T15:19:21;11.07;;;5.57;;
8415;SDS011;4245;42.120;24.732;2023-02-21T15:27:52;5.73;;;4.30;;
8415;SDS011;4245;42.120;24.732;2023-02-21T15:30:22;5.10;;;2.90;;
8415;SDS011;4245;42.120;24.732;2023-02-21T15:32:53;4.00;;;2.20;;
8415;SDS011;4245;42.120;24.732;2023-02-21T15:35:24;2.80;;;2.20;;
8415;SDS011;4245;42.120;24.732;2023-02-21T15:37:55;5.27;;;3.23;;
8415;SDS011;4245;42.120;24.732;2023-02-21T15:40:24;11.17;;;2.73;;
8415;SDS011;4245;42.120;24.732;2023-02-21T15:42:54;3.97;;;2.50;;
8415;SDS011;4245;42.120;24.732;2023-02-21T15:45:21;8.57;;;2.80;;
8415;SDS011;4245;42.120;24.732;2023-02-21T15:47:52;6.20;;;2.43;;
8415;SDS011;4245;42.120;24.732;2023-02-21T15:50:24;7.80;;;3.10;;
8415;SDS011;4245;42.120;24.732;2023-02-21T15:52:56;4.33;;;2.97;;
8415;SDS011;4245;42.120;24.732;2023-02-21T15:55:36;9.37;;;4.23;;
8415;SDS011;4245;42.120;24.732;2023-02-21T15:58:10;6.20;;;3.57;;
8415;SDS011;4245;42.120;24.732;2023-02-21T16:00:41;4.20;;;2.90;;
8415;SDS011;4245;42.120;24.732;2023-02-21T16:03:31;4.33;;;2.60;;
8415;SDS011;4245;42.120;24.732;2023-02-21T16:06:08;4.53;;;2.77;;
8415;SDS011;4245;42.120;24.732;2023-02-21T16:08:39;7.63;;;2.20;;